createdAt,value
2022-09-03T00:04:29.959Z,2.97
2022-09-03T00:09:41.538Z,2.87
2022-09-03T00:14:51.380Z,2.83
2022-09-03T00:20:00.047Z,2.80
2022-09-03T00:25:07.085Z,3.20
2022-09-03T00:30:13.847Z,2.33
2022-09-03T00:35:26.358Z,2.73
2022-09-03T00:41:01.839Z,2.80
2022-09-03T00:46:18.336Z,3.43
2022-09-03T00:51:34.839Z,2.77
2022-09-03T00:56:47.527Z,2.67
2022-09-03T01:02:02.321Z,2.30
2022-09-03T01:07:16.023Z,3.17
2022-09-03T01:12:30.291Z,2.80
2022-09-03T01:17:46.440Z,3.13
2022-09-03T01:23:36.010Z,3.00
2022-09-03T01:28:56.636Z,3.30
2022-09-03T01:34:11.518Z,3.23
2022-09-03T01:39:24.652Z,3.20
2022-09-03T01:44:39.520Z,3.00
2022-09-03T01:49:50.065Z,2.90
2022-09-03T01:55:07.197Z,2.90
2022-09-03T02:00:13.929Z,3.07
2022-09-03T02:05:19.472Z,3.20
2022-09-03T02:10:30.271Z,3.27
2022-09-03T02:15:37.529Z,2.90
2022-09-03T02:20:41.006Z,3.20
2022-09-03T02:25:49.228Z,3.00
2022-09-03T02:30:53.754Z,2.77
2022-09-03T02:35:56.971Z,3.00
2022-09-03T02:40:59.961Z,2.83
2022-09-03T02:46:08.085Z,2.63
2022-09-03T02:51:14.085Z,3.00
2022-09-03T02:56:17.512Z,3.10
2022-09-03T03:01:24.079Z,2.87
2022-09-03T03:06:27.540Z,2.93
2022-09-03T03:11:30.614Z,2.97
2022-09-03T03:16:35.002Z,3.00
2022-09-03T03:21:38.051Z,3.10
2022-09-03T03:26:41.267Z,2.90
2022-09-03T03:31:45.693Z,3.30
2022-09-03T03:36:48.666Z,3.10
2022-09-03T03:41:52.516Z,3.30
2022-09-03T03:46:56.852Z,3.20
2022-09-03T03:51:59.799Z,2.50
2022-09-03T03:57:03.072Z,2.80
2022-09-03T04:02:07.442Z,3.20
2022-09-03T04:07:10.999Z,2.80
2022-09-03T04:12:13.958Z,2.90
2022-09-03T04:17:21.054Z,2.90
2022-09-03T04:22:29.833Z,2.90
2022-09-03T04:27:33.172Z,3.10
2022-09-03T04:32:56.189Z,4.27
2022-09-03T04:37:59.305Z,3.70
2022-09-03T04:43:02.403Z,3.80
2022-09-03T04:48:10.477Z,3.30
2022-09-03T04:53:13.524Z,3.20
2022-09-03T04:58:16.627Z,3.00
2022-09-03T05:03:22.072Z,3.00
2022-09-03T05:08:26.527Z,3.23
2022-09-03T05:13:29.667Z,3.40
2022-09-03T05:18:35.818Z,3.40
2022-09-03T05:23:40.881Z,3.47
2022-09-03T05:28:45.219Z,3.20
2022-09-03T05:33:51.298Z,2.90
2022-09-03T05:38:55.245Z,3.33
2022-09-03T05:43:59.867Z,3.50
2022-09-03T05:49:06.414Z,3.20
2022-09-03T05:54:09.991Z,4.00
2022-09-03T05:59:13.871Z,3.80
2022-09-03T06:04:18.309Z,3.70
2022-09-03T06:09:23.838Z,4.20
2022-09-03T06:14:26.881Z,3.40
2022-09-03T06:19:31.286Z,2.80
2022-09-03T06:24:34.568Z,2.90
2022-09-03T06:29:38.952Z,3.50
2022-09-03T06:34:43.594Z,3.07
2022-09-03T06:39:46.648Z,3.70
2022-09-03T06:44:51.381Z,3.37
2022-09-03T06:49:55.811Z,3.43
2022-09-03T06:54:58.827Z,3.40
2022-09-03T07:00:02.651Z,3.80
2022-09-03T07:05:07.718Z,2.87
2022-09-03T07:10:14.064Z,2.90
2022-09-03T07:15:17.112Z,3.13
2022-09-03T07:20:22.354Z,2.30
2022-09-03T07:25:27.332Z,2.13
2022-09-03T07:30:30.303Z,2.23
2022-09-03T07:35:37.600Z,2.10
2022-09-03T07:40:40.593Z,2.07
2022-09-03T07:45:46.521Z,1.90
2022-09-03T07:50:51.463Z,2.30
2022-09-03T07:55:54.449Z,1.90
2022-09-03T08:00:58.320Z,2.00
2022-09-03T08:06:04.379Z,2.20
2022-09-03T08:11:10.056Z,2.00
2022-09-03T08:16:14.161Z,2.10
2022-09-03T08:21:20.208Z,2.03
2022-09-03T08:26:23.955Z,2.03
2022-09-03T08:31:28.264Z,2.10
2022-09-03T08:36:33.938Z,2.13
2022-09-03T08:41:50.360Z,2.20
2022-09-03T08:46:59.972Z,2.20
2022-09-03T08:52:07.556Z,2.17
2022-09-03T08:57:11.084Z,2.30
2022-09-03T09:02:26.349Z,2.10
2022-09-03T09:07:38.863Z,2.40
2022-09-03T09:12:51.668Z,2.10
2022-09-03T09:18:09.861Z,2.40
2022-09-03T09:23:21.217Z,2.20
2022-09-03T09:28:26.863Z,2.17
2022-09-03T09:33:32.234Z,2.63
2022-09-03T09:38:40.890Z,2.27
2022-09-03T09:43:45.479Z,2.17
2022-09-03T09:48:52.578Z,2.07
2022-09-03T09:54:05.116Z,2.73
2022-09-03T09:59:10.180Z,2.30
2022-09-03T10:04:14.938Z,2.60
2022-09-03T10:09:21.026Z,2.50
2022-09-03T10:14:35.132Z,2.70
2022-09-03T10:20:05.167Z,2.40
2022-09-03T10:25:11.109Z,2.50
2022-09-03T10:30:16.106Z,2.47
2022-09-03T10:35:28.529Z,2.27
2022-09-03T10:40:39.225Z,2.20
2022-09-03T10:45:53.250Z,2.60
2022-09-03T10:51:00.349Z,1.97
2022-09-03T10:56:09.521Z,2.20
2022-09-03T11:01:22.425Z,2.50
2022-09-03T11:06:29.545Z,2.43
2022-09-03T11:11:39.185Z,2.10
2022-09-03T11:16:49.229Z,2.07
2022-09-03T11:21:53.240Z,2.43
2022-09-03T11:27:07.032Z,2.53
2022-09-03T11:32:19.381Z,2.10
2022-09-03T11:37:24.846Z,2.33
2022-09-03T11:42:36.907Z,2.50
2022-09-03T11:47:42.220Z,2.20
2022-09-03T11:52:45.220Z,2.40
2022-09-03T11:57:49.742Z,2.17
2022-09-03T12:02:59.118Z,2.03
2022-09-03T12:08:28.358Z,2.00
2022-09-03T12:13:47.865Z,2.43
2022-09-03T12:18:53.205Z,2.13
2022-09-03T12:23:58.423Z,2.13
2022-09-03T12:29:03.016Z,2.30
2022-09-03T12:34:17.244Z,2.10
2022-09-03T12:40:04.701Z,2.53
2022-09-03T12:44:48.653Z,2.30
2022-09-03T12:49:53.472Z,1.90
2022-09-03T12:55:00.820Z,2.10
2022-09-03T13:00:09.223Z,2.20
2022-09-03T13:05:18.131Z,2.03
2022-09-03T13:10:28.229Z,2.50
2022-09-03T13:15:32.670Z,2.20
2022-09-03T13:20:44.888Z,2.57
2022-09-03T13:26:01.639Z,2.17
2022-09-03T13:31:26.974Z,2.45
2022-09-03T13:36:35.392Z,2.27
2022-09-03T13:41:45.001Z,2.00
2022-09-03T13:46:56.521Z,2.33
2022-09-03T13:52:04.034Z,2.20
2022-09-03T13:57:18.311Z,2.37
2022-09-03T14:02:34.506Z,2.30
2022-09-03T14:07:52.500Z,2.10
2022-09-03T14:13:07.230Z,2.10
2022-09-03T14:18:20.058Z,2.00
2022-09-03T14:23:34.167Z,2.40
2022-09-03T14:28:38.939Z,1.97
2022-09-03T14:33:57.902Z,2.17
2022-09-03T14:39:18.723Z,2.27
2022-09-03T14:44:49.733Z,2.37
2022-09-03T14:50:06.148Z,1.87
2022-09-03T14:55:21.112Z,2.00
2022-09-03T15:00:34.791Z,1.85
2022-09-03T15:05:54.976Z,1.83
2022-09-03T15:11:16.650Z,2.23
2022-09-03T15:16:42.935Z,2.10
2022-09-03T15:22:04.155Z,2.00
2022-09-03T15:27:20.750Z,1.90
2022-09-03T15:32:39.328Z,1.87
2022-09-03T15:37:49.057Z,2.10
2022-09-03T15:42:56.635Z,2.40
2022-09-03T15:48:11.035Z,2.00
2022-09-03T15:53:25.534Z,1.80
2022-09-03T15:58:34.637Z,2.80
2022-09-03T16:03:56.134Z,2.27
2022-09-03T16:09:03.305Z,2.13
2022-09-03T16:14:12.023Z,2.00
2022-09-03T16:19:19.629Z,2.10
2022-09-03T16:24:27.180Z,2.20
2022-09-03T16:29:32.055Z,2.27
2022-09-03T16:34:49.011Z,2.93
2022-09-03T16:40:03.209Z,2.50
2022-09-03T16:45:17.707Z,2.37
2022-09-03T16:50:31.874Z,2.47
2022-09-03T16:55:57.167Z,2.60
2022-09-03T17:01:13.349Z,2.50
2022-09-03T17:06:50.459Z,2.90
2022-09-03T17:12:05.251Z,2.73
2022-09-03T17:17:19.927Z,2.63
2022-09-03T17:22:39.845Z,2.90
2022-09-03T17:27:51.127Z,2.67
2022-09-03T17:33:25.601Z,2.80
2022-09-03T17:38:45.624Z,2.93
2022-09-03T17:43:59.840Z,3.93
2022-09-03T17:49:03.955Z,3.67
2022-09-03T17:54:13.433Z,4.03
2022-09-03T17:59:26.771Z,5.77
2022-09-03T18:04:46.484Z,5.57
2022-09-03T18:09:58.895Z,3.77
2022-09-03T18:15:10.865Z,6.10
2022-09-03T18:20:33.515Z,4.63
2022-09-03T18:25:56.607Z,5.97
2022-09-03T18:31:18.617Z,4.50
2022-09-03T18:36:39.574Z,4.40
2022-09-03T18:42:12.914Z,4.30
2022-09-03T18:48:09.095Z,3.80
2022-09-03T18:53:34.935Z,4.70
2022-09-03T18:59:01.301Z,5.00
2022-09-03T19:04:33.910Z,5.10
2022-09-03T19:10:04.489Z,4.73
2022-09-03T19:15:31.544Z,3.97
2022-09-03T19:20:55.979Z,5.17
2022-09-03T19:26:23.779Z,4.50
2022-09-03T19:31:59.781Z,5.00
2022-09-03T19:37:27.229Z,5.10
2022-09-03T19:43:01.661Z,5.60
2022-09-03T19:48:32.083Z,5.60
2022-09-03T19:53:54.883Z,7.43
2022-09-03T19:59:19.545Z,9.10
2022-09-03T20:04:46.417Z,7.67
2022-09-03T20:10:10.188Z,9.07
2022-09-03T20:15:13.367Z,10.03
2022-09-03T20:20:24.931Z,12.40
2022-09-03T20:25:46.114Z,13.70
2022-09-03T20:30:57.627Z,12.10
2022-09-03T20:36:10.489Z,9.57
2022-09-03T20:41:22.799Z,15.67
2022-09-03T20:46:45.510Z,11.80
2022-09-03T20:51:55.423Z,10.47
2022-09-03T20:57:26.051Z,9.43
2022-09-03T21:02:43.590Z,9.50
2022-09-03T21:07:57.368Z,10.00
2022-09-03T21:13:11.570Z,9.40
2022-09-03T21:18:23.470Z,10.30
2022-09-03T21:23:34.662Z,10.20
2022-09-03T21:28:41.530Z,10.27
2022-09-03T21:33:48.980Z,10.33
2022-09-03T21:39:07.184Z,11.03
2022-09-03T21:44:17.498Z,11.77
2022-09-03T21:49:25.656Z,11.30
2022-09-03T21:54:30.125Z,11.47
2022-09-03T21:59:58.300Z,11.17
2022-09-03T22:05:03.634Z,10.70
2022-09-03T22:10:14.090Z,11.60
2022-09-03T22:15:25.348Z,11.00
2022-09-03T22:20:29.022Z,11.10
2022-09-03T22:25:41.900Z,10.47
2022-09-03T22:30:54.226Z,10.00
2022-09-03T22:36:13.112Z,11.83
2022-09-03T22:41:31.012Z,10.90
2022-09-03T22:46:47.914Z,9.50
2022-09-03T22:52:01.728Z,9.43
2022-09-03T22:57:07.703Z,10.30
2022-09-03T23:02:16.601Z,9.60
2022-09-03T23:07:25.547Z,9.10
2022-09-03T23:12:36.319Z,9.67
2022-09-03T23:17:46.105Z,9.03
2022-09-03T23:22:54.534Z,9.70
2022-09-03T23:28:02.655Z,10.33
2022-09-03T23:33:08.572Z,8.87
2022-09-03T23:38:21.141Z,7.83
2022-09-03T23:43:48.244Z,8.90
2022-09-03T23:49:08.895Z,8.80
2022-09-03T23:54:20.143Z,9.70
2022-09-03T23:59:35.035Z,10.10
